createdAt,value
2018-06-23T00:00:57.059Z,13.12
2018-06-23T00:01:57.059Z,13.20
2018-06-23T00:02:57.056Z,13.21
2018-06-23T00:03:57.056Z,13.11
2018-06-23T00:04:57.053Z,12.99
2018-06-23T00:05:57.052Z,13.01
2018-06-23T00:06:57.052Z,12.95
2018-06-23T00:07:57.049Z,12.99
2018-06-23T00:08:57.046Z,12.94
2018-06-23T00:09:57.045Z,12.95
2018-06-23T00:10:57.044Z,12.95
2018-06-23T00:11:57.044Z,13.03
2018-06-23T00:12:57.042Z,13.01
2018-06-23T00:13:57.040Z,13.06
2018-06-23T00:14:57.040Z,13.02
2018-06-23T00:15:57.037Z,12.99
2018-06-23T00:16:57.034Z,13.01
2018-06-23T00:17:57.034Z,12.98
2018-06-23T00:18:57.033Z,12.87
2018-06-23T00:19:57.031Z,12.66
2018-06-23T00:20:57.028Z,12.54
2018-06-23T00:21:57.035Z,12.51
2018-06-23T00:22:57.026Z,12.47
2018-06-23T00:23:57.024Z,12.39
2018-06-23T00:24:57.021Z,12.36
2018-06-23T00:25:57.020Z,12.43
2018-06-23T00:26:57.020Z,12.47
2018-06-23T00:27:57.018Z,12.36
2018-06-23T00:28:57.014Z,12.36
2018-06-23T00:29:57.013Z,12.39
2018-06-23T00:30:57.012Z,12.43
2018-06-23T00:31:57.010Z,12.43
2018-06-23T00:32:57.009Z,12.45
2018-06-23T00:33:57.007Z,12.53
2018-06-23T00:34:57.005Z,12.54
2018-06-23T00:35:57.003Z,12.50
2018-06-23T00:36:57.000Z,12.54
2018-06-23T00:37:56.999Z,12.54
2018-06-23T00:38:56.997Z,12.55
2018-06-23T00:39:56.995Z,12.54
2018-06-23T00:40:56.992Z,12.57
2018-06-23T00:41:56.991Z,12.63
2018-06-23T00:42:56.991Z,12.63
2018-06-23T00:43:56.987Z,12.63
2018-06-23T00:44:56.987Z,12.63
2018-06-23T00:45:56.985Z,12.63
2018-06-23T00:46:56.983Z,12.65
2018-06-23T00:47:56.980Z,12.61
2018-06-23T00:48:56.979Z,12.57
2018-06-23T00:49:56.977Z,12.55
2018-06-23T00:50:56.976Z,12.61
2018-06-23T00:51:56.974Z,12.61
2018-06-23T00:52:56.970Z,12.55
2018-06-23T00:53:56.970Z,12.53
2018-06-23T00:54:56.968Z,12.66
2018-06-23T00:55:56.967Z,12.68
2018-06-23T00:56:56.964Z,12.63
2018-06-23T00:57:56.962Z,12.63
2018-06-23T00:58:56.961Z,12.62
2018-06-23T00:59:56.962Z,12.70
2018-06-23T01:00:56.957Z,12.62
2018-06-23T01:01:56.960Z,12.58
2018-06-23T01:02:56.953Z,12.65
2018-06-23T01:03:56.952Z,12.66
2018-06-23T01:04:56.953Z,12.66
2018-06-23T01:05:56.947Z,12.62
2018-06-23T01:06:56.946Z,12.81
2018-06-23T01:07:56.944Z,12.83
2018-06-23T01:08:56.945Z,12.78
2018-06-23T01:09:56.941Z,12.70
2018-06-23T01:10:56.940Z,12.63
2018-06-23T01:11:56.937Z,12.63
2018-06-23T01:12:56.936Z,12.54
2018-06-23T01:13:56.933Z,12.57
2018-06-23T01:14:56.933Z,12.54
2018-06-23T01:15:56.930Z,12.54
2018-06-23T01:16:56.928Z,12.37
2018-06-23T01:17:56.926Z,12.36
2018-06-23T01:18:56.925Z,12.44
2018-06-23T01:19:56.922Z,12.30
2018-06-23T01:20:56.920Z,12.25
2018-06-23T01:21:56.919Z,12.33
2018-06-23T01:22:56.917Z,12.26
2018-06-23T01:23:56.915Z,12.37
2018-06-23T01:24:56.912Z,12.36
2018-06-23T01:25:56.911Z,12.44
2018-06-23T01:26:56.909Z,12.28
2018-06-23T01:27:56.907Z,12.18
2018-06-23T01:28:56.905Z,12.26
2018-06-23T01:29:56.903Z,12.17
2018-06-23T01:30:56.901Z,12.11
2018-06-23T01:31:56.901Z,12.17
2018-06-23T01:32:56.898Z,12.07
2018-06-23T01:33:56.895Z,12.05
2018-06-23T01:34:56.896Z,12.11
2018-06-23T01:35:56.892Z,12.08
2018-06-23T01:36:56.890Z,12.10
2018-06-23T01:37:56.888Z,12.07
2018-06-23T01:38:56.886Z,12.15
2018-06-23T01:39:56.884Z,12.23
2018-06-23T01:40:56.881Z,12.20
2018-06-23T01:41:56.880Z,12.28
2018-06-23T01:42:56.877Z,12.20
2018-06-23T01:43:56.876Z,12.21
2018-06-23T01:44:56.872Z,12.20
2018-06-23T01:45:56.871Z,12.18
2018-06-23T01:46:56.869Z,12.15
2018-06-23T01:47:56.867Z,12.15
2018-06-23T01:48:56.864Z,12.05
2018-06-23T01:49:56.863Z,12.08
2018-06-23T01:50:56.861Z,12.03
2018-06-23T01:51:56.861Z,12.02
2018-06-23T01:52:56.855Z,12.10
2018-06-23T01:53:56.855Z,12.07
2018-06-23T01:54:56.853Z,12.18
2018-06-23T01:55:56.850Z,12.18
2018-06-23T01:56:56.848Z,12.17
2018-06-23T01:57:56.846Z,12.02
2018-06-23T01:58:56.844Z,12.20
2018-06-23T01:59:56.849Z,12.07
2018-06-23T02:00:56.839Z,12.18
2018-06-23T02:01:56.838Z,12.15
2018-06-23T02:02:56.835Z,12.10
2018-06-23T02:03:56.834Z,12.17
2018-06-23T02:04:56.840Z,12.23
2018-06-23T02:05:56.830Z,12.23
2018-06-23T02:06:56.827Z,12.14
2018-06-23T02:07:56.825Z,12.26
2018-06-23T02:08:56.822Z,12.23
2018-06-23T02:09:56.820Z,12.17
2018-06-23T02:10:56.819Z,12.20
2018-06-23T02:11:56.817Z,12.14
2018-06-23T02:12:56.813Z,12.18
2018-06-23T02:13:56.812Z,12.29
2018-06-23T02:14:56.811Z,12.26
2018-06-23T02:15:56.812Z,12.29
2018-06-23T02:16:56.806Z,12.37
2018-06-23T02:17:56.803Z,12.30
2018-06-23T02:18:56.801Z,12.25
2018-06-23T02:19:56.801Z,12.32
2018-06-23T02:20:56.796Z,12.32
2018-06-23T02:21:56.796Z,12.32
2018-06-23T02:22:56.794Z,12.26
2018-06-23T02:23:56.792Z,12.37
2018-06-23T02:24:56.788Z,12.37
2018-06-23T02:25:56.787Z,12.35
2018-06-23T02:26:56.785Z,12.35
2018-06-23T02:27:56.787Z,12.37
2018-06-23T02:28:56.781Z,12.37
2018-06-23T02:29:56.778Z,12.33
2018-06-23T02:30:56.777Z,12.36
2018-06-23T02:31:56.776Z,12.37
2018-06-23T02:32:56.772Z,12.35
2018-06-23T02:33:56.772Z,12.33
2018-06-23T02:34:56.769Z,12.35
2018-06-23T02:35:56.768Z,12.32
2018-06-23T02:36:56.764Z,12.25
2018-06-23T02:37:56.762Z,12.15
2018-06-23T02:38:56.762Z,12.05
2018-06-23T02:39:56.759Z,12.11
2018-06-23T02:40:56.756Z,12.15
2018-06-23T02:41:56.753Z,12.18
2018-06-23T02:42:56.754Z,12.10
2018-06-23T02:43:56.751Z,12.07
2018-06-23T02:44:56.748Z,12.03
2018-06-23T02:45:56.745Z,11.97
2018-06-23T02:46:56.744Z,11.97
2018-06-23T02:47:56.745Z,11.99
2018-06-23T02:48:56.741Z,12.08
2018-06-23T02:49:56.736Z,12.03
2018-06-23T02:50:56.735Z,12.07
2018-06-23T02:51:56.733Z,12.05
2018-06-23T02:52:56.731Z,12.07
2018-06-23T02:53:56.727Z,12.11
2018-06-23T02:54:56.727Z,12.11
2018-06-23T02:55:56.725Z,12.08
2018-06-23T02:56:56.721Z,12.10
2018-06-23T02:57:56.720Z,12.05
2018-06-23T02:58:56.716Z,11.95
2018-06-23T02:59:56.718Z,11.97
2018-06-23T03:00:56.717Z,11.91
2018-06-23T03:01:56.711Z,11.97
2018-06-23T03:02:56.708Z,12.00
2018-06-23T03:03:56.708Z,11.95
2018-06-23T03:04:56.704Z,11.89
2018-06-23T03:05:56.702Z,11.99
2018-06-23T03:06:56.699Z,12.00
2018-06-23T03:07:56.697Z,12.00
2018-06-23T03:08:56.696Z,12.00
2018-06-23T03:09:56.695Z,11.97
2018-06-23T03:10:56.691Z,11.97
2018-06-23T03:11:56.688Z,11.97
2018-06-23T03:12:56.685Z,11.91
2018-06-23T03:13:56.687Z,11.93
2018-06-23T03:14:56.682Z,11.99
2018-06-23T03:15:56.680Z,12.02
2018-06-23T03:16:56.678Z,11.97
2018-06-23T03:17:56.674Z,11.86
2018-06-23T03:18:56.673Z,11.93
2018-06-23T03:19:56.671Z,11.96
2018-06-23T03:20:56.668Z,11.88
2018-06-23T03:21:56.666Z,11.91
2018-06-23T03:22:56.663Z,11.85
2018-06-23T03:23:56.661Z,11.78
2018-06-23T03:24:56.659Z,11.83
2018-06-23T03:25:56.656Z,11.77
2018-06-23T03:26:56.653Z,11.74
2018-06-23T03:27:56.652Z,11.67
2018-06-23T03:28:56.649Z,11.73
2018-06-23T03:29:56.650Z,11.65
2018-06-23T03:30:56.645Z,11.63
2018-06-23T03:31:56.644Z,11.67
2018-06-23T03:32:56.641Z,11.63
2018-06-23T03:33:56.638Z,11.65
2018-06-23T03:34:56.636Z,11.67
2018-06-23T03:35:56.634Z,11.60
2018-06-23T03:36:56.631Z,11.60
2018-06-23T03:37:56.627Z,11.65
2018-06-23T03:38:56.627Z,11.62
2018-06-23T03:39:56.624Z,11.55
2018-06-23T03:40:56.621Z,11.65
2018-06-23T03:41:56.618Z,11.63
2018-06-23T03:42:56.616Z,11.59
2018-06-23T03:43:56.615Z,11.58
2018-06-23T03:44:56.611Z,11.53
2018-06-23T03:45:56.610Z,11.49
2018-06-23T03:46:56.606Z,11.56
2018-06-23T03:47:56.622Z,11.44
2018-06-23T03:48:56.601Z,11.48
2018-06-23T03:49:56.600Z,11.44
2018-06-23T03:50:56.598Z,11.44
2018-06-23T03:51:56.597Z,11.43
2018-06-23T03:52:56.591Z,11.48
2018-06-23T03:53:56.591Z,11.26
2018-06-23T03:54:56.588Z,11.40
2018-06-23T03:55:56.585Z,11.38
2018-06-23T03:56:56.583Z,11.38
2018-06-23T03:57:56.583Z,11.30
2018-06-23T03:58:56.578Z,11.27
2018-06-23T03:59:56.578Z,11.33
2018-06-23T04:00:56.573Z,11.23
2018-06-23T04:01:56.570Z,11.34
2018-06-23T04:02:56.567Z,11.26
2018-06-23T04:03:56.565Z,11.38
2018-06-23T04:04:56.561Z,11.33
2018-06-23T04:05:56.560Z,11.38
2018-06-23T04:06:56.558Z,11.38
2018-06-23T04:07:56.556Z,11.40
2018-06-23T04:08:56.551Z,11.41
2018-06-23T04:09:56.548Z,11.35
2018-06-23T04:10:56.547Z,11.40
2018-06-23T04:11:56.545Z,11.40
2018-06-23T04:12:56.542Z,11.38
2018-06-23T04:13:56.540Z,11.37
2018-06-23T04:14:56.537Z,11.44
2018-06-23T04:15:56.533Z,11.38
2018-06-23T04:16:56.532Z,11.37
2018-06-23T04:17:56.528Z,11.34
2018-06-23T04:18:56.526Z,11.37
2018-06-23T04:19:56.525Z,11.34
2018-06-23T04:20:56.521Z,11.33
2018-06-23T04:21:56.517Z,11.35
2018-06-23T04:22:56.515Z,11.40
2018-06-23T04:23:56.514Z,11.34
2018-06-23T04:24:56.511Z,11.35
2018-06-23T04:25:56.510Z,11.34
2018-06-23T04:26:56.509Z,11.35
2018-06-23T04:27:56.503Z,11.33
2018-06-23T04:28:56.499Z,11.33
2018-06-23T04:29:56.497Z,11.37
2018-06-23T04:30:56.496Z,11.33
2018-06-23T04:31:56.493Z,11.40
2018-06-23T04:32:56.490Z,11.40
2018-06-23T04:33:56.488Z,11.44
2018-06-23T04:34:56.486Z,11.43
2018-06-23T04:35:56.483Z,11.48
2018-06-23T04:36:56.479Z,11.44
2018-06-23T04:37:56.477Z,11.45
2018-06-23T04:38:56.475Z,11.51
2018-06-23T04:39:56.473Z,11.52
2018-06-23T04:40:56.473Z,11.62
2018-06-23T04:41:56.467Z,11.51
2018-06-23T04:42:56.464Z,11.52
2018-06-23T04:43:56.463Z,11.55
2018-06-23T04:44:56.458Z,11.49
2018-06-23T04:45:56.457Z,11.51
2018-06-23T04:46:56.453Z,11.49
2018-06-23T04:47:56.453Z,11.59
2018-06-23T04:48:56.449Z,11.53
2018-06-23T04:49:56.448Z,11.56
2018-06-23T04:50:56.444Z,11.59
2018-06-23T04:51:56.442Z,11.59
2018-06-23T04:52:56.444Z,11.59
2018-06-23T04:53:56.437Z,11.59
2018-06-23T04:54:56.435Z,11.68
2018-06-23T04:55:56.433Z,11.56
2018-06-23T04:56:56.432Z,11.58
2018-06-23T04:57:56.435Z,11.63
2018-06-23T04:58:56.424Z,11.59
2018-06-23T04:59:56.422Z,11.60
2018-06-23T05:00:56.419Z,11.71
2018-06-23T05:01:56.418Z,11.71
2018-06-23T05:02:56.415Z,11.76
2018-06-23T05:03:56.414Z,11.80
2018-06-23T05:04:56.410Z,11.85
2018-06-23T05:05:56.408Z,11.85
2018-06-23T05:06:56.406Z,11.88
2018-06-23T05:07:56.407Z,11.91
2018-06-23T05:08:56.401Z,12.00
2018-06-23T05:09:56.399Z,12.03
2018-06-23T05:10:56.397Z,12.07
2018-06-23T05:11:56.395Z,12.05
2018-06-23T05:12:56.391Z,12.07
2018-06-23T05:13:56.390Z,12.08
2018-06-23T05:14:56.386Z,12.18
2018-06-23T05:15:56.385Z,12.15
2018-06-23T05:16:56.383Z,12.15
2018-06-23T05:17:56.381Z,12.20
2018-06-23T05:18:56.378Z,12.32
2018-06-23T05:19:56.376Z,12.29
2018-06-23T05:20:56.374Z,12.29
2018-06-23T05:21:56.372Z,12.32
2018-06-23T05:22:56.372Z,12.32
2018-06-23T05:23:56.368Z,12.20
2018-06-23T05:24:56.364Z,12.32
2018-06-23T05:25:56.423Z,12.28
2018-06-23T05:26:56.361Z,12.30
2018-06-23T05:27:56.361Z,12.30
2018-06-23T05:28:56.355Z,12.30
2018-06-23T05:29:56.359Z,12.29
2018-06-23T05:30:56.354Z,12.36
2018-06-23T05:31:56.352Z,12.32
2018-06-23T05:32:56.349Z,12.30
2018-06-23T05:33:56.349Z,12.35
2018-06-23T05:34:56.344Z,12.37
2018-06-23T05:35:56.342Z,12.30
2018-06-23T05:36:56.338Z,12.18
2018-06-23T05:37:56.337Z,12.07
2018-06-23T05:38:56.336Z,12.05
2018-06-23T05:39:56.333Z,12.14
2018-06-23T05:40:56.332Z,12.17
2018-06-23T05:41:56.330Z,12.32
2018-06-23T05:42:56.328Z,12.39
2018-06-23T05:43:56.326Z,12.44
2018-06-23T05:44:56.323Z,12.58
2018-06-23T05:45:56.326Z,12.65
2018-06-23T05:46:56.320Z,12.80
2018-06-23T05:47:56.317Z,12.87
2018-06-23T05:48:56.316Z,12.76
2018-06-23T05:49:56.312Z,12.72
2018-06-23T05:50:56.312Z,12.66
2018-06-23T05:51:56.315Z,12.54
2018-06-23T05:52:56.308Z,12.47
2018-06-23T05:53:56.306Z,12.51
2018-06-23T05:54:56.304Z,12.47
2018-06-23T05:55:56.303Z,12.57
2018-06-23T05:56:56.300Z,12.66
2018-06-23T05:57:56.298Z,12.80
2018-06-23T05:58:56.296Z,12.81
2018-06-23T05:59:56.295Z,12.87
2018-06-23T06:00:56.291Z,12.90
2018-06-23T06:01:56.289Z,13.01
2018-06-23T06:02:56.292Z,13.12
2018-06-23T06:03:56.293Z,13.21
2018-06-23T06:04:56.284Z,13.21
2018-06-23T06:05:56.286Z,13.27
2018-06-23T06:06:56.284Z,13.36
2018-06-23T06:07:56.281Z,13.37
2018-06-23T06:08:56.279Z,13.49
2018-06-23T06:09:56.277Z,13.67
2018-06-23T06:10:56.275Z,13.62
2018-06-23T06:11:56.274Z,13.67
2018-06-23T06:12:56.326Z,13.67
2018-06-23T06:13:56.271Z,13.70
2018-06-23T06:14:56.269Z,13.65
2018-06-23T06:15:56.268Z,13.61
2018-06-23T06:16:56.266Z,13.65
2018-06-23T06:17:56.264Z,13.75
2018-06-23T06:18:56.262Z,13.73
2018-06-23T06:19:56.261Z,13.76
2018-06-23T06:20:56.259Z,13.85
2018-06-23T06:21:56.259Z,13.95
2018-06-23T06:22:56.559Z,14.01
2018-06-23T06:23:56.257Z,14.08
2018-06-23T06:24:56.258Z,14.16
2018-06-23T06:25:56.254Z,14.25
2018-06-23T06:26:56.253Z,14.28
2018-06-23T06:27:56.252Z,14.31
2018-06-23T06:28:56.250Z,14.28
2018-06-23T06:29:56.249Z,14.36
2018-06-23T06:30:56.248Z,14.33
2018-06-23T06:31:56.248Z,14.38
2018-06-23T06:32:56.245Z,14.23
2018-06-23T06:33:56.245Z,14.00
2018-06-23T06:34:56.244Z,13.85
2018-06-23T06:35:56.243Z,13.89
2018-06-23T06:36:56.242Z,13.82
2018-06-23T06:37:56.534Z,13.83
2018-06-23T06:38:56.239Z,13.82
2018-06-23T06:39:56.239Z,13.71
2018-06-23T06:40:56.238Z,13.67
2018-06-23T06:41:56.237Z,13.78
2018-06-23T06:42:56.237Z,13.78
2018-06-23T06:43:56.234Z,13.89
2018-06-23T06:44:56.233Z,13.93
2018-06-23T06:45:56.232Z,14.07
2018-06-23T06:46:56.232Z,14.23
2018-06-23T06:47:56.231Z,14.28
2018-06-23T06:48:56.230Z,14.43
2018-06-23T06:49:56.229Z,14.44
2018-06-23T06:50:56.303Z,14.62
2018-06-23T06:51:56.232Z,14.71
2018-06-23T06:52:56.225Z,14.67
2018-06-23T06:53:56.226Z,14.48
2018-06-23T06:54:56.224Z,14.44
2018-06-23T06:55:56.227Z,14.44
2018-06-23T06:56:56.223Z,14.25
2018-06-23T06:57:56.222Z,14.25
2018-06-23T06:58:56.223Z,14.38
2018-06-23T06:59:56.221Z,14.52
2018-06-23T07:00:56.220Z,14.71
2018-06-23T07:01:56.219Z,14.85
2018-06-23T07:02:56.220Z,14.73
2018-06-23T07:03:56.219Z,14.93
2018-06-23T07:04:56.219Z,15.05
2018-06-23T07:05:56.220Z,15.10
2018-06-23T07:06:56.218Z,15.11
2018-06-23T07:07:56.227Z,15.17
2018-06-23T07:08:56.294Z,15.18
2018-06-23T07:09:56.216Z,15.04
2018-06-23T07:10:56.219Z,15.05
2018-06-23T07:11:56.217Z,15.29
2018-06-23T07:12:56.214Z,15.63
2018-06-23T07:13:56.216Z,15.87
2018-06-23T07:14:56.216Z,16.17
2018-06-23T07:15:56.215Z,16.22
2018-06-23T07:16:56.217Z,16.31
2018-06-23T07:17:56.215Z,16.29
2018-06-23T07:18:56.224Z,16.40
2018-06-23T07:19:56.216Z,16.36
2018-06-23T07:20:56.215Z,16.62
2018-06-23T07:21:56.215Z,16.61
2018-06-23T07:22:56.215Z,16.34
2018-06-23T07:23:56.295Z,16.16
2018-06-23T07:24:56.220Z,16.08
2018-06-23T07:25:56.216Z,16.22
2018-06-23T07:26:56.264Z,16.22
2018-06-23T07:27:56.221Z,16.28
2018-06-23T07:28:56.216Z,16.29
2018-06-23T07:29:56.217Z,16.22
2018-06-23T07:30:56.217Z,16.18
2018-06-23T07:31:56.217Z,16.10
2018-06-23T07:32:56.217Z,16.18
2018-06-23T07:33:56.218Z,16.29
2018-06-23T07:34:56.303Z,16.39
2018-06-23T07:35:56.221Z,16.26
2018-06-23T07:36:56.221Z,16.32
2018-06-23T07:37:56.222Z,16.31
2018-06-23T07:38:56.224Z,16.41
2018-06-23T07:39:56.225Z,16.54
2018-06-23T07:40:56.226Z,16.65
2018-06-23T07:41:56.228Z,16.68
2018-06-23T07:42:56.230Z,16.28
2018-06-23T07:43:56.232Z,16.10
2018-06-23T07:44:56.231Z,16.13
2018-06-23T07:45:56.234Z,16.50
2018-06-23T07:46:56.237Z,16.65
2018-06-23T07:47:56.239Z,16.91
2018-06-23T07:48:56.240Z,16.89
2018-06-23T07:49:56.244Z,17.12
2018-06-23T07:50:56.247Z,17.09
2018-06-23T07:51:56.575Z,17.19
2018-06-23T07:52:56.251Z,17.20
2018-06-23T07:53:56.254Z,17.32
2018-06-23T07:54:56.260Z,17.35
2018-06-23T07:55:56.261Z,17.34
2018-06-23T07:56:56.263Z,17.23
2018-06-23T07:57:56.266Z,17.14
2018-06-23T07:58:56.269Z,17.01
2018-06-23T07:59:56.273Z,16.89
2018-06-23T08:00:56.275Z,16.87
2018-06-23T08:01:56.280Z,17.20
2018-06-23T08:02:56.283Z,17.87
2018-06-23T08:03:56.286Z,17.98
2018-06-23T08:04:56.289Z,18.55
2018-06-23T08:05:56.315Z,18.60
2018-06-23T08:06:56.300Z,18.48
2018-06-23T08:07:56.306Z,18.73
2018-06-23T08:08:56.309Z,18.97
2018-06-23T08:09:56.316Z,19.23
2018-06-23T08:10:56.324Z,19.08
2018-06-23T08:11:56.329Z,19.38
2018-06-23T08:12:56.334Z,19.55
2018-06-23T08:13:56.341Z,19.78
2018-06-23T08:14:56.348Z,19.94
2018-06-23T08:15:56.357Z,19.94
2018-06-23T08:16:56.362Z,19.60
2018-06-23T08:17:56.369Z,19.45
2018-06-23T08:18:56.379Z,19.44
2018-06-23T08:19:56.386Z,19.38
2018-06-23T08:20:56.392Z,19.38
2018-06-23T08:21:56.400Z,19.56
2018-06-23T08:22:56.408Z,19.71
2018-06-23T08:23:56.416Z,19.77
2018-06-23T08:24:56.429Z,19.77
2018-06-23T08:25:56.429Z,20.08
2018-06-23T08:26:56.438Z,20.14
2018-06-23T08:27:56.445Z,20.24
2018-06-23T08:28:56.454Z,20.58
2018-06-23T08:29:56.463Z,21.13
2018-06-23T08:30:56.472Z,20.27
2018-06-23T08:31:56.485Z,19.35
2018-06-23T08:32:56.487Z,18.71
2018-06-23T08:33:56.498Z,18.24
2018-06-23T08:34:56.503Z,18.79
2018-06-23T08:35:56.512Z,19.34
2018-06-23T08:36:56.518Z,19.89
2018-06-23T08:37:56.527Z,20.39
2018-06-23T08:38:56.536Z,20.86
2018-06-23T08:39:56.544Z,21.11
2018-06-23T08:40:56.551Z,21.37
2018-06-23T08:41:56.562Z,21.45
2018-06-23T08:42:56.664Z,21.51
2018-06-23T08:43:56.579Z,21.65
2018-06-23T08:44:56.611Z,21.66
2018-06-23T08:45:56.598Z,21.78
2018-06-23T08:46:56.608Z,21.66
2018-06-23T08:47:56.638Z,21.83
2018-06-23T08:48:56.627Z,22.08
2018-06-23T08:49:56.639Z,22.43
2018-06-23T08:50:56.650Z,22.73
2018-06-23T08:51:56.663Z,22.91
2018-06-23T08:52:56.785Z,22.76
2018-06-23T08:53:56.682Z,22.28
2018-06-23T08:54:56.693Z,22.08
2018-06-23T08:55:56.705Z,21.65
2018-06-23T08:56:56.738Z,21.70
2018-06-23T08:57:56.724Z,21.07
2018-06-23T08:58:56.787Z,20.08
2018-06-23T08:59:56.744Z,20.07
2018-06-23T09:00:57.051Z,20.21
2018-06-23T09:01:56.763Z,20.37
2018-06-23T09:02:56.774Z,20.52
2018-06-23T09:03:56.785Z,20.85
2018-06-23T09:04:56.794Z,20.93
2018-06-23T09:05:56.805Z,21.40
2018-06-23T09:06:56.822Z,21.66
2018-06-23T09:07:56.824Z,21.74
2018-06-23T09:08:56.836Z,21.70
2018-06-23T09:09:56.848Z,22.10
2018-06-23T09:10:56.854Z,21.60
2018-06-23T09:11:56.867Z,20.83
2018-06-23T09:12:56.875Z,20.68
2018-06-23T09:13:56.886Z,20.56
2018-06-23T09:14:56.896Z,20.10
2018-06-23T09:15:56.906Z,19.89
2018-06-23T09:16:56.916Z,19.75
2018-06-23T09:17:56.922Z,19.49
2018-06-23T09:18:56.930Z,19.34
2018-06-23T09:19:57.013Z,19.22
2018-06-23T09:20:56.945Z,19.16
2018-06-23T09:21:56.953Z,19.59
2018-06-23T09:22:56.960Z,19.85
2018-06-23T09:23:56.967Z,20.50
2018-06-23T09:24:56.975Z,20.85
2018-06-23T09:25:57.035Z,21.03
2018-06-23T09:26:56.991Z,20.26
2018-06-23T09:27:56.999Z,19.97
2018-06-23T09:28:57.007Z,19.89
2018-06-23T09:29:57.017Z,19.71
2018-06-23T09:30:57.022Z,19.78
2018-06-23T09:31:57.029Z,20.17
2018-06-23T09:32:57.035Z,20.21
2018-06-23T09:33:57.043Z,20.58
2018-06-23T09:34:57.055Z,20.93
2018-06-23T09:35:57.072Z,21.33
2018-06-23T09:36:57.169Z,21.51
2018-06-23T09:37:57.075Z,21.59
2018-06-23T09:38:57.084Z,21.54
2018-06-23T09:39:57.092Z,21.70
2018-06-23T09:40:57.100Z,21.88
2018-06-23T09:41:57.109Z,21.96
2018-06-23T09:42:57.118Z,22.08
2018-06-23T09:43:57.501Z,21.85
2018-06-23T09:44:57.135Z,21.59
2018-06-23T09:45:57.356Z,21.04
2018-06-23T09:46:57.180Z,20.29
2018-06-23T09:47:57.189Z,20.49
2018-06-23T09:48:57.198Z,20.21
2018-06-23T09:49:57.179Z,19.63
2018-06-23T09:50:57.189Z,19.32
2018-06-23T09:51:57.197Z,18.89
2018-06-23T09:52:57.203Z,18.86
2018-06-23T09:53:57.211Z,19.00
2018-06-23T09:54:57.217Z,18.98
2018-06-23T09:55:57.248Z,18.81
2018-06-23T09:56:57.230Z,18.73
2018-06-23T09:57:57.243Z,18.51
2018-06-23T09:58:57.243Z,18.51
2018-06-23T09:59:57.249Z,18.43
2018-06-23T10:00:57.252Z,18.73
2018-06-23T10:01:57.258Z,18.89
2018-06-23T10:02:57.264Z,18.96
2018-06-23T10:03:57.272Z,19.08
2018-06-23T10:04:57.273Z,18.88
2018-06-23T10:05:57.284Z,18.73
2018-06-23T10:06:57.285Z,18.52
2018-06-23T10:07:57.292Z,18.34
2018-06-23T10:08:57.296Z,18.19
2018-06-23T10:09:57.303Z,18.19
2018-06-23T10:10:57.305Z,18.41
2018-06-23T10:11:57.310Z,18.89
2018-06-23T10:12:57.359Z,18.81
2018-06-23T10:13:57.319Z,18.74
2018-06-23T10:14:57.324Z,18.79
2018-06-23T10:15:57.329Z,19.29
2018-06-23T10:16:57.403Z,19.78
2018-06-23T10:17:57.337Z,19.62
2018-06-23T10:18:57.342Z,19.35
2018-06-23T10:19:57.347Z,19.41
2018-06-23T10:20:59.374Z,19.90
2018-06-23T10:21:57.358Z,20.21
2018-06-23T10:22:57.363Z,20.71
2018-06-23T10:23:57.369Z,21.20
2018-06-23T10:24:57.378Z,21.58
2018-06-23T10:25:57.380Z,21.77
2018-06-23T10:26:57.388Z,21.59
2018-06-23T10:27:57.395Z,21.48
2018-06-23T10:28:57.400Z,21.48
2018-06-23T10:29:57.407Z,21.85
2018-06-23T10:30:57.415Z,21.96
2018-06-23T10:31:57.421Z,22.14
2018-06-23T10:32:57.427Z,22.03
2018-06-23T10:33:57.440Z,22.31
2018-06-23T10:34:57.444Z,22.14
2018-06-23T10:35:57.451Z,22.31
2018-06-23T10:36:57.457Z,22.78
2018-06-23T10:37:57.464Z,22.92
2018-06-23T10:38:57.474Z,22.47
2018-06-23T10:39:57.541Z,22.31
2018-06-23T10:40:57.488Z,22.08
2018-06-23T10:41:57.496Z,22.01
2018-06-23T10:42:57.505Z,21.65
2018-06-23T10:43:57.513Z,21.38
2018-06-23T10:44:57.516Z,21.17
2018-06-23T10:45:57.524Z,20.95
2018-06-23T10:46:57.531Z,20.68
2018-06-23T10:47:57.805Z,20.56
2018-06-23T10:48:57.543Z,20.27
2018-06-23T10:49:57.549Z,20.24
2018-06-23T10:50:57.556Z,20.15
2018-06-23T10:51:57.563Z,20.00
2018-06-23T10:52:57.567Z,19.78
2018-06-23T10:53:57.573Z,19.75
2018-06-23T10:54:57.579Z,19.84
2018-06-23T10:55:57.586Z,20.21
2018-06-23T10:56:57.591Z,20.48
2018-06-23T10:57:57.594Z,20.73
2018-06-23T10:58:57.600Z,20.96
2018-06-23T10:59:57.606Z,21.15
2018-06-23T11:00:57.625Z,21.40
2018-06-23T11:01:57.617Z,21.19
2018-06-23T11:02:57.629Z,21.11
2018-06-23T11:03:57.630Z,21.14
2018-06-23T11:04:57.876Z,21.13
2018-06-23T11:05:57.642Z,21.14
2018-06-23T11:06:57.648Z,21.29
2018-06-23T11:07:57.655Z,21.05
2018-06-23T11:08:57.660Z,20.90
2018-06-23T11:09:57.666Z,20.89
2018-06-23T11:10:57.672Z,20.88
2018-06-23T11:11:57.681Z,20.63
2018-06-23T11:12:57.684Z,20.60
2018-06-23T11:13:57.740Z,20.55
2018-06-23T11:14:57.696Z,20.49
2018-06-23T11:15:57.705Z,20.55
2018-06-23T11:16:57.707Z,20.26
2018-06-23T11:17:57.712Z,20.15
2018-06-23T11:18:57.716Z,20.11
2018-06-23T11:19:57.722Z,20.26
2018-06-23T11:20:57.729Z,20.52
2018-06-23T11:21:57.733Z,20.49
2018-06-23T11:22:57.742Z,20.40
2018-06-23T11:23:57.743Z,20.90
2018-06-23T11:24:57.748Z,21.38
2018-06-23T11:25:57.767Z,21.37
2018-06-23T11:26:57.760Z,21.29
2018-06-23T11:27:57.769Z,21.22
2018-06-23T11:28:57.772Z,21.28
2018-06-23T11:29:57.776Z,21.38
2018-06-23T11:30:57.783Z,21.26
2018-06-23T11:31:57.788Z,21.30
2018-06-23T11:32:57.793Z,21.35
2018-06-23T11:33:57.798Z,21.53
2018-06-23T11:34:57.804Z,21.65
2018-06-23T11:35:57.808Z,21.65
2018-06-23T11:36:57.817Z,21.69
2018-06-23T11:37:57.818Z,21.37
2018-06-23T11:38:57.823Z,21.43
2018-06-23T11:39:57.828Z,21.41
2018-06-23T11:40:57.833Z,21.28
2018-06-23T11:41:57.838Z,21.68
2018-06-23T11:42:57.847Z,21.77
2018-06-23T11:43:57.928Z,21.62
2018-06-23T11:44:57.852Z,21.51
2018-06-23T11:45:57.858Z,21.11
2018-06-23T11:46:57.868Z,20.73
2018-06-23T11:47:57.868Z,20.29
2018-06-23T11:48:57.873Z,20.12
2018-06-23T11:49:57.877Z,20.19
2018-06-23T11:50:57.882Z,20.29
2018-06-23T11:51:57.886Z,20.50
2018-06-23T11:52:57.911Z,20.78
2018-06-23T11:53:57.896Z,20.96
2018-06-23T11:54:57.904Z,20.98
2018-06-23T11:55:57.906Z,20.88
2018-06-23T11:56:57.948Z,20.83
2018-06-23T11:57:57.914Z,20.90
2018-06-23T11:58:57.919Z,20.80
2018-06-23T11:59:57.922Z,20.80
2018-06-23T12:00:57.933Z,20.86
2018-06-23T12:01:57.930Z,20.90
2018-06-23T12:02:57.934Z,21.13
2018-06-23T12:03:57.941Z,20.95
2018-06-23T12:04:57.943Z,20.83
2018-06-23T12:05:57.953Z,20.92
2018-06-23T12:06:57.952Z,20.73
2018-06-23T12:07:57.968Z,20.73
2018-06-23T12:08:57.958Z,20.53
2018-06-23T12:09:58.514Z,20.42
2018-06-23T12:10:57.971Z,20.24
2018-06-23T12:11:57.974Z,20.02
2018-06-23T12:12:57.974Z,19.99
2018-06-23T12:13:57.980Z,19.70
2018-06-23T12:14:57.982Z,19.77
2018-06-23T12:15:57.986Z,19.79
2018-06-23T12:16:57.992Z,19.77
2018-06-23T12:17:57.995Z,19.93
2018-06-23T12:18:57.999Z,19.87
2018-06-23T12:19:58.005Z,19.90
2018-06-23T12:20:58.006Z,19.87
2018-06-23T12:21:58.009Z,19.84
2018-06-23T12:22:58.015Z,20.00
2018-06-23T12:23:58.026Z,20.22
2018-06-23T12:24:58.022Z,20.29
2018-06-23T12:25:58.057Z,20.50
2018-06-23T12:26:58.030Z,20.40
2018-06-23T12:27:58.037Z,20.42
2018-06-23T12:28:58.037Z,20.34
2018-06-23T12:29:58.285Z,20.27
2018-06-23T12:30:58.242Z,20.32
2018-06-23T12:31:58.050Z,20.21
2018-06-23T12:32:58.054Z,20.19
2018-06-23T12:33:58.059Z,20.39
2018-06-23T12:34:58.064Z,20.44
2018-06-23T12:35:58.068Z,20.59
2018-06-23T12:36:58.073Z,20.64
2018-06-23T12:37:58.076Z,20.75
2018-06-23T12:38:58.081Z,21.03
2018-06-23T12:39:58.084Z,21.14
2018-06-23T12:40:58.089Z,21.25
2018-06-23T12:41:58.094Z,21.44
2018-06-23T12:42:58.100Z,21.85
2018-06-23T12:43:58.104Z,21.96
2018-06-23T12:44:58.109Z,21.84
2018-06-23T12:45:58.116Z,21.63
2018-06-23T12:46:58.122Z,21.44
2018-06-23T12:47:58.124Z,21.20
2018-06-23T12:48:58.128Z,21.15
2018-06-23T12:49:58.135Z,21.11
2018-06-23T12:50:58.140Z,21.14
2018-06-23T12:51:58.151Z,21.11
2018-06-23T12:52:58.150Z,20.98